Time;durP1;ratioP1;P1;durP2;ratioP2;P2;SDS_P1;SDS_P2;PMS_P1;PMS_P2;Temp;Humidity;BMP_temperature;BMP_pressure;BME280_temperature;BME280_humidity;BME280_pressure;Samples;Min_cycle;Max_cycle;Signal;HPM_P1;HPM_P2
2022/03/26 00:01:33;;;;;;;34.97;19.27;;;9.20;39.60;;;;;;5046971;28;20025;-64
2022/03/26 00:03:58;;;;;;;38.58;20.83;;;9.10;39.60;;;;;;5056767;28;20033;-63
2022/03/26 00:06:24;;;;;;;40.30;21.30;;;9.00;39.80;;;;;;5047306;28;20028;-62
2022/03/26 00:08:49;;;;;;;38.67;20.75;;;9.00;40.10;;;;;;5050624;28;20056;-64
2022/03/26 00:11:16;;;;;;;35.28;20.42;;;8.90;40.30;;;;;;5028976;28;20047;-62
2022/03/26 00:13:42;;;;;;;40.83;20.30;;;8.80;40.30;;;;;;5054974;28;20028;-64
2022/03/26 00:16:08;;;;;;;30.98;18.88;;;8.80;40.40;;;;;;5030304;28;20076;-61
2022/03/26 00:18:34;;;;;;;35.28;20.88;;;8.80;40.60;;;;;;5049076;28;20511;-63
2022/03/26 00:20:59;;;;;;;40.17;20.50;;;8.70;40.50;;;;;;5051716;28;20049;-64
2022/03/26 00:23:25;;;;;;;36.42;20.50;;;8.70;40.90;;;;;;5045912;28;20469;-62
2022/03/26 00:25:51;;;;;;;38.13;20.15;;;8.70;41.00;;;;;;5048553;28;20032;-63
2022/03/26 00:28:17;;;;;;;37.70;20.65;;;8.60;40.90;;;;;;5057819;28;20051;-64
2022/03/26 00:30:42;;;;;;;33.28;18.38;;;8.60;41.10;;;;;;5043981;28;20431;-62
2022/03/26 00:33:08;;;;;;;32.80;19.13;;;8.60;41.30;;;;;;5049350;28;20030;-62
2022/03/26 00:35:35;;;;;;;35.15;19.65;;;8.50;41.30;;;;;;5051346;28;20021;-64
2022/03/26 00:38:01;;;;;;;38.03;20.45;;;8.50;41.40;;;;;;5050879;28;20069;-63
2022/03/26 00:40:27;;;;;;;42.53;20.50;;;8.40;41.30;;;;;;5053918;28;20025;-62
2022/03/26 00:42:53;;;;;;;36.97;19.50;;;8.40;41.30;;;;;;5053041;28;20044;-62
2022/03/26 00:45:19;;;;;;;33.95;19.77;;;8.30;41.50;;;;;;5031475;28;20089;-62
2022/03/26 00:47:45;;;;;;;36.90;19.80;;;8.20;41.50;;;;;;5028914;28;20033;-62
2022/03/26 00:50:10;;;;;;;32.03;18.42;;;8.20;41.70;;;;;;5051104;28;20021;-62
2022/03/26 00:52:37;;;;;;;34.30;19.75;;;8.10;41.80;;;;;;5047373;28;20056;-62
2022/03/26 00:55:04;;;;;;;31.67;18.45;;;8.10;42.00;;;;;;5035819;28;20079;-64
2022/03/26 00:57:30;;;;;;;34.80;18.17;;;8.00;42.00;;;;;;5061623;28;20025;-63
2022/03/26 00:59:58;;;;;;;36.55;19.52;;;8.00;42.70;;;;;;5042447;28;20053;-62
2022/03/26 01:02:24;;;;;;;32.38;18.05;;;8.00;42.30;;;;;;5051832;28;20448;-63
2022/03/26 01:04:50;;;;;;;33.72;18.40;;;7.90;42.30;;;;;;5046164;28;20025;-64
2022/03/26 01:07:16;;;;;;;33.72;19.00;;;7.90;42.40;;;;;;5046639;28;20036;-62
2022/03/26 01:09:42;;;;;;;34.45;19.33;;;7.90;42.50;;;;;;5049470;28;20089;-62
2022/03/26 01:12:08;;;;;;;37.08;19.30;;;7.80;42.60;;;;;;5046289;28;20033;-62
2022/03/26 01:14:34;;;;;;;39.30;19.42;;;7.80;42.80;;;;;;5057144;28;20025;-63
2022/03/26 01:17:00;;;;;;;33.42;17.58;;;7.80;42.80;;;;;;5046361;28;20025;-61
2022/03/26 01:19:26;;;;;;;37.25;18.67;;;7.80;42.80;;;;;;5048414;28;20052;-62
2022/03/26 01:21:52;;;;;;;41.17;19.65;;;7.70;42.80;;;;;;5027947;28;20437;-62
2022/03/26 01:24:17;;;;;;;35.63;18.75;;;7.70;42.90;;;;;;5031046;28;20089;-62
2022/03/26 01:26:43;;;;;;;34.65;18.08;;;7.70;43.00;;;;;;5056662;28;20084;-61
2022/03/26 01:29:10;;;;;;;33.55;18.85;;;7.70;43.10;;;;;;5047465;28;20080;-64
2022/03/26 01:31:37;;;;;;;38.58;18.73;;;7.60;43.30;;;;;;5050657;28;20524;-63
2022/03/26 01:34:02;;;;;;;30.45;18.15;;;7.60;43.20;;;;;;5058919;28;20022;-64
2022/03/26 01:36:28;;;;;;;33.28;18.27;;;7.60;43.30;;;;;;5050909;28;20066;-63
2022/03/26 01:38:54;;;;;;;34.15;17.30;;;7.60;43.30;;;;;;5050174;28;20038;-63
2022/03/26 01:41:20;;;;;;;38.08;19.08;;;7.50;43.50;;;;;;5030190;28;20029;-64
2022/03/26 01:43:47;;;;;;;29.77;17.23;;;7.50;43.50;;;;;;5034896;28;20029;-63
2022/03/26 01:46:13;;;;;;;31.33;16.92;;;7.50;43.40;;;;;;5029920;28;20017;-65
2022/03/26 01:48:39;;;;;;;42.00;18.00;;;7.40;43.50;;;;;;5062351;28;20032;-63
2022/03/26 01:51:15;;;;;;;34.72;18.13;;;7.40;43.60;;;;;;5030697;28;20025;-62
2022/03/26 01:53:54;;;;;;;32.83;17.05;;;7.40;44.00;;;;;;5022045;28;20053;-61
2022/03/26 01:56:21;;;;;;;35.75;17.25;;;7.30;43.80;;;;;;5026205;28;20040;-62
2022/03/26 01:58:47;;;;;;;38.20;18.17;;;7.30;43.80;;;;;;5035424;28;20030;-62
2022/03/26 02:01:13;;;;;;;33.17;17.63;;;7.30;44.10;;;;;;5029145;28;20043;-62
2022/03/26 02:03:39;;;;;;;31.35;17.10;;;7.20;44.10;;;;;;5029635;28;20030;-62
2022/03/26 02:06:05;;;;;;;33.60;17.80;;;7.20;44.20;;;;;;5034514;28;20050;-62
2022/03/26 02:08:31;;;;;;;34.17;17.35;;;7.20;44.30;;;;;;5042494;28;20029;-63
2022/03/26 02:10:57;;;;;;;34.72;18.70;;;7.10;44.30;;;;;;5030226;28;20064;-63
2022/03/26 02:13:23;;;;;;;39.10;18.77;;;7.10;44.40;;;;;;5008886;28;20479;-63
2022/03/26 02:15:48;;;;;;;29.08;16.75;;;7.10;45.10;;;;;;5032581;28;20030;-63
2022/03/26 02:18:14;;;;;;;32.65;17.17;;;7.10;44.50;;;;;;5034706;28;20120;-63
2022/03/26 02:20:40;;;;;;;32.25;17.70;;;7.00;44.60;;;;;;5032779;28;20038;-63
2022/03/26 02:23:06;;;;;;;32.88;17.40;;;7.00;44.70;;;;;;5031825;28;20426;-63
2022/03/26 02:25:31;;;;;;;38.60;17.75;;;7.00;44.70;;;;;;5037359;28;20036;-63
2022/03/26 02:27:57;;;;;;;31.98;16.90;;;7.00;44.70;;;;;;5023740;28;20458;-63
2022/03/26 02:30:23;;;;;;;35.70;17.20;;;6.90;44.70;;;;;;5041251;28;20037;-63
2022/03/26 02:32:49;;;;;;;33.67;17.90;;;6.90;44.80;;;;;;5041153;28;20486;-63
2022/03/26 02:35:14;;;;;;;33.25;17.77;;;6.90;44.90;;;;;;5028046;28;20030;-63
2022/03/26 02:37:40;;;;;;;28.83;17.35;;;6.80;44.80;;;;;;5019145;28;20025;-63
2022/03/26 02:40:07;;;;;;;37.70;17.55;;;6.90;45.00;;;;;;5027933;28;20045;-62
2022/03/26 02:42:37;;;;;;;35.40;17.10;;;6.80;45.00;;;;;;5027448;28;20037;-63
2022/03/26 02:45:04;;;;;;;29.98;17.23;;;6.80;45.50;;;;;;5020200;28;20081;-63
2022/03/26 02:47:30;;;;;;;40.83;17.70;;;6.70;45.10;;;;;;4915394;28;20026;-63
2022/03/26 02:49:56;;;;;;;42.20;18.40;;;6.70;45.10;;;;;;5027739;28;20040;-63
2022/03/26 02:52:26;;;;;;;33.63;17.23;;;6.70;45.20;;;;;;5043844;28;20045;-63
2022/03/26 02:54:52;;;;;;;35.80;18.17;;;6.60;45.30;;;;;;5049044;28;20029;-63
2022/03/26 02:57:18;;;;;;;32.50;18.15;;;6.60;45.30;;;;;;5056739;28;20140;-64
2022/03/26 02:59:44;;;;;;;31.40;16.08;;;6.60;45.30;;;;;;5032389;28;20039;-63
2022/03/26 03:02:09;;;;;;;34.22;18.05;;;6.60;45.30;;;;;;5045457;28;20032;-63
2022/03/26 03:04:36;;;;;;;30.20;15.98;;;6.50;45.30;;;;;;5043988;28;20042;-63
2022/03/26 03:07:02;;;;;;;37.30;17.63;;;6.50;45.20;;;;;;5049907;28;20053;-63
2022/03/26 03:09:28;;;;;;;33.70;16.65;;;6.50;45.50;;;;;;5044328;28;20048;-63
2022/03/26 03:11:53;;;;;;;37.42;17.00;;;6.40;45.50;;;;;;5046902;28;20057;-63
2022/03/26 03:14:19;;;;;;;32.38;17.95;;;6.40;45.60;;;;;;5050119;28;20021;-63
2022/03/26 03:16:46;;;;;;;35.50;17.05;;;6.40;45.70;;;;;;5031722;28;20164;-63
2022/03/26 03:19:12;;;;;;;30.48;16.38;;;6.30;45.80;;;;;;5031168;28;20107;-63
2022/03/26 03:21:38;;;;;;;33.42;17.17;;;6.30;45.80;;;;;;5058835;28;20025;-63
2022/03/26 03:24:04;;;;;;;32.10;17.15;;;6.30;45.70;;;;;;5031704;28;20052;-64
2022/03/26 03:26:29;;;;;;;31.73;16.15;;;6.30;46.00;;;;;;5044634;28;20025;-61
2022/03/26 03:28:57;;;;;;;28.95;14.63;;;6.20;46.00;;;;;;5051322;28;20020;-61
2022/03/26 03:31:23;;;;;;;31.00;16.05;;;6.20;46.10;;;;;;5058063;28;20205;-63
2022/03/26 03:33:49;;;;;;;41.53;18.55;;;6.20;46.30;;;;;;5036748;28;20090;-62
2022/03/26 03:36:14;;;;;;;31.48;17.40;;;6.10;46.30;;;;;;5044482;28;20041;-61
2022/03/26 03:38:40;;;;;;;34.10;16.98;;;6.10;46.40;;;;;;5064398;28;20049;-62
2022/03/26 03:41:06;;;;;;;33.22;17.83;;;6.10;46.60;;;;;;5043817;28;20022;-62
2022/03/26 03:43:32;;;;;;;40.53;17.88;;;6.10;46.60;;;;;;5055706;28;20021;-64
2022/03/26 03:45:58;;;;;;;33.60;17.52;;;6.00;46.50;;;;;;5047356;28;20524;-62
2022/03/26 03:48:23;;;;;;;31.23;17.15;;;6.00;46.70;;;;;;5045057;28;20026;-63
2022/03/26 03:50:49;;;;;;;33.08;17.75;;;6.00;46.70;;;;;;5051245;28;20029;-64
2022/03/26 03:53:15;;;;;;;32.40;16.60;;;6.20;46.80;;;;;;5054759;28;20056;-61
2022/03/26 03:55:41;;;;;;;31.05;16.75;;;5.90;46.70;;;;;;5048341;28;20080;-62
2022/03/26 03:58:07;;;;;;;37.95;16.50;;;5.90;46.80;;;;;;5047700;28;20030;-64
2022/03/26 04:00:33;;;;;;;29.88;16.83;;;5.90;46.80;;;;;;5044380;28;20044;-61
2022/03/26 04:03:00;;;;;;;35.10;17.17;;;5.90;47.00;;;;;;5042920;28;20026;-64
2022/03/26 04:05:26;;;;;;;40.83;18.10;;;5.80;46.90;;;;;;5036536;28;20115;-62
2022/03/26 04:07:52;;;;;;;33.40;16.75;;;5.80;46.90;;;;;;5048080;28;20127;-63
2022/03/26 04:10:18;;;;;;;38.10;17.70;;;5.80;46.90;;;;;;5039507;28;20032;-62
2022/03/26 04:12:44;;;;;;;35.85;17.15;;;5.70;47.00;;;;;;5026404;28;20083;-62
2022/03/26 04:15:12;;;;;;;31.73;17.48;;;5.70;47.10;;;;;;5047980;28;20029;-63
2022/03/26 04:17:38;;;;;;;34.83;16.95;;;5.70;47.10;;;;;;5046026;28;20474;-62
2022/03/26 04:20:08;;;;;;;28.30;16.38;;;5.60;47.30;;;;;;5051822;28;20037;-64
2022/03/26 04:22:34;;;;;;;35.85;17.65;;;5.60;47.40;;;;;;5047765;28;20025;-63
2022/03/26 04:25:00;;;;;;;36.10;18.27;;;5.60;47.30;;;;;;5027009;28;20041;-62
2022/03/26 04:27:25;;;;;;;37.70;18.02;;;5.60;47.40;;;;;;5056126;28;20037;-63
2022/03/26 04:29:51;;;;;;;33.47;16.98;;;5.50;47.20;;;;;;5045052;28;20052;-63
2022/03/26 04:32:17;;;;;;;30.38;16.58;;;5.50;47.40;;;;;;5044621;28;20507;-63
2022/03/26 04:34:42;;;;;;;32.65;17.17;;;5.50;47.30;;;;;;5028138;28;20037;-62
2022/03/26 04:37:08;;;;;;;37.97;17.42;;;5.40;47.30;;;;;;5033117;28;20034;-61
2022/03/26 04:39:35;;;;;;;29.55;16.27;;;5.40;47.40;;;;;;5044270;28;20065;-63
2022/03/26 04:42:00;;;;;;;36.63;18.00;;;5.40;47.40;;;;;;5039267;28;20041;-63
2022/03/26 04:44:26;;;;;;;33.05;16.48;;;5.40;47.60;;;;;;5047378;28;20078;-63
2022/03/26 04:46:51;;;;;;;37.13;17.70;;;5.30;47.50;;;;;;5051161;28;20172;-63
2022/03/26 04:49:17;;;;;;;30.77;16.75;;;5.30;47.60;;;;;;5043773;28;20018;-63
2022/03/26 04:51:43;;;;;;;37.33;17.60;;;5.30;47.60;;;;;;5047800;28;20136;-63
2022/03/26 04:54:08;;;;;;;31.48;16.50;;;5.30;47.60;;;;;;5042569;28;20030;-63
2022/03/26 04:56:34;;;;;;;31.92;16.50;;;5.20;47.70;;;;;;5045605;28;20021;-61
2022/03/26 04:59:00;;;;;;;35.85;17.90;;;5.20;47.80;;;;;;5029759;28;20061;-61
2022/03/26 05:01:26;;;;;;;37.47;18.17;;;5.20;47.90;;;;;;5061398;28;20025;-61
2022/03/26 05:03:52;;;;;;;35.05;17.38;;;5.20;47.90;;;;;;5050230;28;20397;-62
2022/03/26 05:06:18;;;;;;;36.05;17.65;;;5.10;48.00;;;;;;5050498;28;20090;-62
2022/03/26 05:08:43;;;;;;;40.63;16.13;;;5.10;48.10;;;;;;5043403;28;20022;-63
2022/03/26 05:11:09;;;;;;;38.85;18.10;;;5.10;48.00;;;;;;5043403;28;20025;-63
2022/03/26 05:13:34;;;;;;;29.80;15.18;;;5.10;48.30;;;;;;5053025;28;20033;-62
2022/03/26 05:16:02;;;;;;;35.80;16.17;;;5.10;48.30;;;;;;5058280;28;20033;-63
2022/03/26 05:18:28;;;;;;;38.72;17.88;;;5.00;48.20;;;;;;5026994;28;20097;-61
2022/03/26 05:20:56;;;;;;;35.90;17.45;;;5.00;48.30;;;;;;5044434;28;20457;-62
2022/03/26 05:23:23;;;;;;;36.58;17.10;;;5.00;48.30;;;;;;5051167;28;20057;-62
2022/03/26 05:25:48;;;;;;;37.28;17.70;;;5.00;48.40;;;;;;5054233;28;20056;-62
2022/03/26 05:28:14;;;;;;;37.58;18.10;;;5.00;48.40;;;;;;5048965;28;20029;-61
2022/03/26 05:30:40;;;;;;;34.17;17.08;;;5.00;48.40;;;;;;5037751;28;20025;-62
2022/03/26 05:33:05;;;;;;;33.83;16.73;;;5.00;48.50;;;;;;5046375;28;20021;-61
2022/03/26 05:35:31;;;;;;;33.33;16.23;;;5.00;48.50;;;;;;5053786;28;20029;-61
2022/03/26 05:37:57;;;;;;;34.95;17.30;;;5.00;48.50;;;;;;5046802;28;20025;-61
2022/03/26 05:40:22;;;;;;;33.42;17.95;;;4.90;48.40;;;;;;5055338;28;20037;-62
2022/03/26 05:42:49;;;;;;;36.40;18.20;;;4.90;48.40;;;;;;5051029;28;20025;-62
2022/03/26 05:45:15;;;;;;;34.72;17.38;;;5.20;48.80;;;;;;5026330;28;20053;-62
2022/03/26 05:47:41;;;;;;;36.72;18.25;;;5.00;48.70;;;;;;5044512;28;20034;-62
2022/03/26 05:50:10;;;;;;;38.38;18.23;;;5.00;48.80;;;;;;5057553;28;20485;-63
2022/03/26 05:52:36;;;;;;;36.05;17.88;;;5.00;49.10;;;;;;5049377;28;20451;-63
2022/03/26 05:55:03;;;;;;;39.13;18.88;;;5.00;49.70;;;;;;5046460;28;20033;-63
2022/03/26 05:57:28;;;;;;;33.38;17.75;;;5.10;49.20;;;;;;5048646;28;20028;-63
2022/03/26 05:59:54;;;;;;;40.53;18.58;;;5.10;49.20;;;;;;5042866;28;20038;-61
2022/03/26 06:02:21;;;;;;;42.17;19.30;;;5.10;49.30;;;;;;5045504;28;20619;-64
2022/03/26 06:04:47;;;;;;;36.92;18.95;;;5.20;49.30;;;;;;5054081;28;20032;-62
2022/03/26 06:07:12;;;;;;;32.97;18.45;;;5.20;49.40;;;;;;5043705;28;20040;-63
2022/03/26 06:09:38;;;;;;;38.00;18.65;;;5.30;49.60;;;;;;5056111;28;20022;-63
2022/03/26 06:12:05;;;;;;;36.75;17.92;;;5.40;49.70;;;;;;5039176;28;20035;-64
2022/03/26 06:14:31;;;;;;;32.25;17.33;;;5.50;49.80;;;;;;5056626;28;20033;-60
2022/03/26 06:16:57;;;;;;;35.88;18.05;;;5.50;49.70;;;;;;5046626;28;20028;-62
2022/03/26 06:19:24;;;;;;;40.35;19.33;;;5.60;49.70;;;;;;5062130;28;20116;-62
2022/03/26 06:21:50;;;;;;;31.92;17.40;;;5.70;49.70;;;;;;5050552;28;20037;-62
2022/03/26 06:24:16;;;;;;;32.90;17.27;;;5.80;49.70;;;;;;5047094;28;20044;-62
2022/03/26 06:26:44;;;;;;;45.15;18.35;;;5.90;49.60;;;;;;5038222;28;20029;-62
2022/03/26 06:29:12;;;;;;;34.92;17.90;;;6.00;49.70;;;;;;5048844;28;20033;-61
2022/03/26 06:31:37;;;;;;;37.88;18.75;;;6.10;49.60;;;;;;5051277;28;20033;-62
2022/03/26 06:34:04;;;;;;;36.22;18.80;;;6.20;49.60;;;;;;5028763;28;20036;-62
2022/03/26 06:36:29;;;;;;;33.70;17.17;;;6.30;49.60;;;;;;5047482;28;20037;-63
2022/03/26 06:38:55;;;;;;;36.28;18.27;;;6.40;49.60;;;;;;5048509;28;20056;-62
2022/03/26 06:41:21;;;;;;;39.58;17.65;;;6.60;49.60;;;;;;5049824;28;20096;-63
2022/03/26 06:43:47;;;;;;;33.60;17.75;;;6.70;49.40;;;;;;5048910;28;20049;-62
2022/03/26 06:46:13;;;;;;;34.63;18.58;;;6.80;49.50;;;;;;5050135;28;20131;-63
2022/03/26 06:48:39;;;;;;;35.47;18.33;;;6.90;49.30;;;;;;5056299;28;20025;-63
2022/03/26 06:51:06;;;;;;;31.60;17.55;;;7.00;49.30;;;;;;5050481;28;20045;-62
2022/03/26 06:53:35;;;;;;;31.17;17.27;;;7.20;49.30;;;;;;5054085;28;20060;-61
2022/03/26 06:56:02;;;;;;;31.98;17.65;;;7.30;49.10;;;;;;5047094;28;20021;-64
2022/03/26 06:58:28;;;;;;;38.80;19.42;;;7.50;48.90;;;;;;5035566;28;20471;-61
2022/03/26 07:00:53;;;;;;;33.33;17.88;;;7.60;48.70;;;;;;5045314;28;20052;-61
2022/03/26 07:03:19;;;;;;;33.83;18.95;;;7.80;48.60;;;;;;5046633;28;20060;-62
2022/03/26 07:05:46;;;;;;;32.78;18.95;;;7.90;48.50;;;;;;5048382;28;20024;-61
2022/03/26 07:08:12;;;;;;;31.42;17.00;;;8.00;48.50;;;;;;5044568;28;20021;-62
2022/03/26 07:10:41;;;;;;;35.55;19.25;;;8.20;48.40;;;;;;5033215;28;20378;-63
2022/03/26 07:13:07;;;;;;;35.47;19.98;;;8.30;48.30;;;;;;5045623;28;20104;-62
2022/03/26 07:15:33;;;;;;;38.08;18.27;;;8.50;48.30;;;;;;5032594;28;20036;-60
2022/03/26 07:17:59;;;;;;;33.40;19.13;;;8.60;48.10;;;;;;5043550;28;20398;-61
2022/03/26 07:20:25;;;;;;;39.70;20.00;;;8.80;48.00;;;;;;5055186;28;20033;-61
2022/03/26 07:22:50;;;;;;;37.55;19.88;;;9.00;47.90;;;;;;5046033;28;20048;-61
2022/03/26 07:25:16;;;;;;;33.80;19.63;;;9.10;48.40;;;;;;5044433;28;20370;-63
2022/03/26 07:27:43;;;;;;;34.55;20.20;;;9.30;47.70;;;;;;5053823;28;20037;-61
2022/03/26 07:30:09;;;;;;;35.03;19.17;;;9.50;47.50;;;;;;5027555;28;20040;-61
2022/03/26 07:32:36;;;;;;;43.85;20.38;;;9.70;47.20;;;;;;5043712;28;20113;-61
2022/03/26 07:35:02;;;;;;;33.65;20.67;;;9.80;47.20;;;;;;5044353;28;20044;-61
2022/03/26 07:37:28;;;;;;;39.83;20.90;;;10.00;47.00;;;;;;5046709;28;20032;-62
2022/03/26 07:39:53;;;;;;;38.13;20.65;;;10.20;47.00;;;;;;5030531;28;20057;-61
2022/03/26 07:42:19;;;;;;;45.90;20.23;;;10.30;46.80;;;;;;5053910;28;20025;-61
2022/03/26 07:44:45;;;;;;;37.95;21.42;;;10.50;46.50;;;;;;5028095;28;20033;-63
2022/03/26 07:47:11;;;;;;;41.00;21.33;;;10.70;46.40;;;;;;5043186;28;20398;-63
2022/03/26 07:49:37;;;;;;;36.05;20.50;;;10.90;46.10;;;;;;5052260;28;20097;-61
2022/03/26 07:52:03;;;;;;;40.13;20.30;;;11.10;46.00;;;;;;5050631;28;20053;-62
2022/03/26 07:54:29;;;;;;;45.60;22.17;;;11.30;45.90;;;;;;5050668;28;20634;-62
2022/03/26 07:56:55;;;;;;;37.85;22.50;;;11.50;45.70;;;;;;5047630;28;20021;-61
2022/03/26 07:59:21;;;;;;;35.38;19.58;;;11.70;45.50;;;;;;5045194;28;20516;-61
2022/03/26 08:01:46;;;;;;;41.70;21.48;;;11.90;45.10;;;;;;5047586;28;20117;-63
2022/03/26 08:04:12;;;;;;;38.90;21.88;;;12.10;44.80;;;;;;5043388;28;20025;-63
2022/03/26 08:06:38;;;;;;;42.10;22.20;;;12.30;44.50;;;;;;5047054;28;20025;-63
2022/03/26 08:09:04;;;;;;;41.85;20.52;;;12.50;44.10;;;;;;5044797;28;20056;-62
2022/03/26 08:11:29;;;;;;;42.58;21.08;;;12.70;44.00;;;;;;5043512;28;20088;-62
2022/03/26 08:13:55;;;;;;;37.30;21.30;;;12.90;43.80;;;;;;5047230;28;20520;-61
2022/03/26 08:16:21;;;;;;;44.65;22.20;;;13.10;43.60;;;;;;5064325;28;20044;-63
2022/03/26 08:18:47;;;;;;;43.22;22.58;;;13.30;43.40;;;;;;5051874;28;20032;-61
2022/03/26 08:21:14;;;;;;;41.97;21.05;;;13.50;43.20;;;;;;5034188;28;20057;-63
2022/03/26 08:23:40;;;;;;;40.25;21.25;;;13.70;42.90;;;;;;5054243;28;20021;-64
2022/03/26 08:26:26;;;;;;;46.17;22.75;;;13.90;43.00;;;;;;5035696;28;20084;-64
2022/03/26 08:28:54;;;;;;;43.60;21.48;;;14.20;42.60;;;;;;5047684;28;20520;-63
2022/03/26 08:31:21;;;;;;;39.00;20.70;;;14.40;42.00;;;;;;5027703;28;20032;-64
2022/03/26 08:33:47;;;;;;;37.45;20.88;;;14.60;41.40;;;;;;5045433;28;20028;-63
2022/03/26 08:36:14;;;;;;;41.67;21.60;;;14.80;40.70;;;;;;5043277;28;20061;-63
2022/03/26 08:38:41;;;;;;;38.83;21.20;;;15.00;40.20;;;;;;5056274;28;20034;-64
2022/03/26 08:41:06;;;;;;;44.22;23.75;;;15.20;39.80;;;;;;5031199;28;20025;-63
2022/03/26 08:43:32;;;;;;;37.75;22.52;;;15.30;39.40;;;;;;5041403;28;20872;-64
2022/03/26 08:45:59;;;;;;;44.17;23.05;;;15.50;38.90;;;;;;5040848;28;20034;-63
2022/03/26 08:48:25;;;;;;;42.63;21.98;;;15.60;38.60;;;;;;5053389;28;20042;-63
2022/03/26 08:50:51;;;;;;;36.67;21.95;;;15.80;38.60;;;;;;5052345;28;20049;-63
2022/03/26 08:53:16;;;;;;;44.05;24.25;;;15.90;38.30;;;;;;5031737;28;20078;-62
2022/03/26 08:55:42;;;;;;;37.13;21.85;;;16.00;37.80;;;;;;5030644;28;20065;-62
2022/03/26 08:58:08;;;;;;;39.67;21.50;;;16.10;37.60;;;;;;5033487;28;20145;-63
2022/03/26 09:00:35;;;;;;;38.67;22.55;;;16.20;37.30;;;;;;5026587;28;20096;-63
2022/03/26 09:03:02;;;;;;;40.00;22.67;;;16.30;37.20;;;;;;5027755;28;20025;-63
2022/03/26 09:05:28;;;;;;;42.63;22.63;;;16.50;37.10;;;;;;5027819;28;20084;-63
2022/03/26 09:07:55;;;;;;;46.90;22.25;;;16.60;36.90;;;;;;5042567;28;20084;-63
2022/03/26 09:10:21;;;;;;;38.13;23.40;;;16.70;36.40;;;;;;5026038;28;20481;-63
2022/03/26 09:12:47;;;;;;;41.15;22.15;;;16.80;35.90;;;;;;5037441;28;20773;-61
2022/03/26 09:15:13;;;;;;;38.03;22.48;;;16.90;36.20;;;;;;5031282;28;20038;-62
2022/03/26 09:17:39;;;;;;;36.65;21.00;;;17.00;35.90;;;;;;5026721;28;20102;-62
2022/03/26 09:20:06;;;;;;;50.30;22.23;;;17.20;35.60;;;;;;5033360;28;20061;-62
2022/03/26 09:22:32;;;;;;;38.92;22.60;;;17.30;35.50;;;;;;5024940;28;20336;-62
2022/03/26 09:24:58;;;;;;;40.42;22.10;;;17.40;35.40;;;;;;5029786;28;20163;-63
2022/03/26 09:27:24;;;;;;;43.33;23.85;;;17.50;34.70;;;;;;5024430;28;20545;-62
2022/03/26 09:29:50;;;;;;;36.13;22.60;;;17.60;34.60;;;;;;5004786;28;20030;-63
2022/03/26 09:32:16;;;;;;;41.17;23.90;;;17.70;34.60;;;;;;5002618;28;20137;-63
2022/03/26 09:34:42;;;;;;;38.83;22.23;;;17.80;33.80;;;;;;5022025;28;20038;-64
2022/03/26 09:37:08;;;;;;;52.53;22.75;;;17.90;34.10;;;;;;5004623;28;20030;-63
2022/03/26 09:39:33;;;;;;;40.60;22.98;;;18.00;33.80;;;;;;5025072;28;20038;-63
2022/03/26 09:41:59;;;;;;;40.05;21.83;;;18.10;33.40;;;;;;5005585;28;20049;-63
2022/03/26 09:44:26;;;;;;;40.45;22.30;;;18.10;33.50;;;;;;5033981;28;20037;-62
2022/03/26 09:46:52;;;;;;;45.65;24.02;;;18.20;33.60;;;;;;5040125;28;20510;-63
2022/03/26 09:49:17;;;;;;;41.28;21.85;;;18.30;33.20;;;;;;5032208;28;20097;-63
2022/03/26 09:51:43;;;;;;;38.08;22.92;;;18.50;33.10;;;;;;5040317;28;20144;-64
2022/03/26 09:54:12;;;;;;;41.80;23.70;;;18.50;32.60;;;;;;5054473;28;20021;-64
2022/03/26 09:56:39;;;;;;;40.33;22.25;;;18.60;31.90;;;;;;5060093;28;20025;-63
2022/03/26 09:59:04;;;;;;;41.80;21.48;;;18.70;32.10;;;;;;5058258;28;20048;-63
2022/03/26 10:01:30;;;;;;;42.33;24.10;;;18.70;32.00;;;;;;5035745;28;20032;-64
2022/03/26 10:04:11;;;;;;;39.95;23.85;;;18.80;31.90;;;;;;5024756;28;20041;-62
2022/03/26 10:06:37;;;;;;;43.38;23.27;;;18.90;31.10;;;;;;5024587;28;20152;-63
2022/03/26 10:09:03;;;;;;;40.38;24.27;;;19.00;32.20;;;;;;5029379;28;20029;-63
2022/03/26 10:11:33;;;;;;;35.85;22.13;;;19.10;31.50;;;;;;5051535;28;20084;-63
2022/03/26 10:13:59;;;;;;;40.78;23.33;;;19.20;31.50;;;;;;5060284;28;20040;-62
2022/03/26 10:16:26;;;;;;;37.55;23.50;;;19.20;31.50;;;;;;5055057;28;20036;-62
2022/03/26 10:18:52;;;;;;;38.80;23.00;;;19.40;31.30;;;;;;5043855;28;20520;-64
2022/03/26 10:21:19;;;;;;;35.58;21.70;;;19.40;31.10;;;;;;5046407;28;20025;-62
2022/03/26 10:23:48;;;;;;;45.10;23.38;;;19.50;31.10;;;;;;5027059;28;20029;-63
2022/03/26 10:26:15;;;;;;;38.88;22.73;;;19.60;31.00;;;;;;5046656;28;20029;-61
2022/03/26 10:28:42;;;;;;;36.75;22.70;;;19.80;31.40;;;;;;5044842;28;20022;-62
2022/03/26 10:34:12;;;;;;;38.25;22.58;;;20.00;30.50;;;;;;5033857;28;20041;-64
2022/03/26 10:36:54;;;;;;;38.88;22.23;;;20.10;30.00;;;;;;5034278;28;20029;-62
2022/03/26 10:39:25;;;;;;;37.08;22.50;;;20.20;29.70;;;;;;5053829;28;20052;-62
2022/03/26 10:41:54;;;;;;;37.28;22.35;;;20.30;30.30;;;;;;5052076;28;20518;-65
2022/03/26 10:44:30;;;;;;;36.15;22.40;;;20.40;30.00;;;;;;5044863;28;20052;-62
2022/03/26 10:46:58;;;;;;;33.58;21.23;;;20.50;29.30;;;;;;5042013;28;20032;-64
2022/03/26 10:49:27;;;;;;;35.72;21.90;;;20.60;29.50;;;;;;5052633;28;20068;-63
2022/03/26 10:51:54;;;;;;;35.75;22.30;;;20.70;29.10;;;;;;5028062;28;20053;-64
2022/03/26 10:54:28;;;;;;;33.35;20.58;;;20.70;29.20;;;;;;5056064;28;20028;-63
2022/03/26 10:57:00;;;;;;;38.47;22.15;;;20.80;28.80;;;;;;5027231;28;20029;-63
2022/03/26 10:59:27;;;;;;;36.05;20.80;;;20.80;28.80;;;;;;5046428;28;20410;-63
2022/03/26 11:01:53;;;;;;;37.95;22.65;;;20.90;28.70;;;;;;5042472;28;20047;-63
2022/03/26 11:04:19;;;;;;;38.08;22.45;;;20.90;28.60;;;;;;5052440;28;20028;-63
2022/03/26 11:06:47;;;;;;;38.65;20.80;;;20.90;28.50;;;;;;5048900;28;20466;-63
2022/03/26 11:09:14;;;;;;;37.67;21.25;;;21.00;28.50;;;;;;5054087;28;20029;-63
2022/03/26 11:11:42;;;;;;;32.90;20.63;;;21.00;28.30;;;;;;5052707;28;20013;-62
2022/03/26 11:14:13;;;;;;;35.17;21.30;;;21.10;28.60;;;;;;5056103;28;20044;-62
2022/03/26 11:16:54;;;;;;;38.53;21.23;;;21.20;28.20;;;;;;5057908;28;20063;-62
2022/03/26 11:20:05;;;;;;;34.20;21.38;;;21.30;27.70;;;;;;5036266;28;20036;-62
2022/03/26 11:22:49;;;;;;;29.88;19.02;;;21.40;27.40;;;;;;5040437;28;20030;-63
2022/03/26 11:25:37;;;;;;;33.37;21.83;;;21.50;27.60;;;;;;5037421;28;20033;-64
2022/03/26 11:28:31;;;;;;;28.67;19.20;;;21.50;27.00;;;;;;5027383;28;20045;-64
2022/03/26 11:31:12;;;;;;;36.63;20.75;;;21.60;27.40;;;;;;5043915;28;20025;-63
2022/03/26 11:33:38;;;;;;;45.72;21.02;;;21.70;27.30;;;;;;5025430;28;20034;-63
2022/03/26 11:36:08;;;;;;;34.42;21.92;;;21.80;27.60;;;;;;5054882;28;20047;-63
2022/03/26 11:38:34;;;;;;;31.23;21.10;;;21.90;26.70;;;;;;5062826;28;20489;-63
2022/03/26 11:41:03;;;;;;;30.80;20.65;;;21.90;26.10;;;;;;5038385;28;20062;-62
2022/03/26 11:43:44;;;;;;;30.73;18.88;;;22.00;27.20;;;;;;5028711;28;20026;-64
2022/03/26 11:51:57;;;;;;;33.00;18.52;;;22.10;25.70;;;;;;5062517;28;20056;-63
2022/03/26 11:54:23;;;;;;;29.58;17.50;;;22.10;25.30;;;;;;5029083;28;20018;-64
2022/03/26 11:57:12;;;;;;;31.30;19.17;;;22.20;25.90;;;;;;5062292;28;20075;-64
2022/03/26 11:59:41;;;;;;;29.35;18.77;;;22.30;24.50;;;;;;5038039;28;20042;-65
2022/03/26 12:02:34;;;;;;;33.53;21.10;;;22.40;25.70;;;;;;5049262;28;20096;-64
2022/03/26 12:07:50;;;;;;;30.20;19.10;;;22.60;25.80;;;;;;5024829;28;20025;-64
2022/03/26 12:10:19;;;;;;;31.55;19.42;;;22.70;26.00;;;;;;5041773;28;20026;-63
2022/03/26 12:13:00;;;;;;;30.65;19.95;;;22.70;25.70;;;;;;5042870;28;20026;-64
2022/03/26 12:15:28;;;;;;;32.67;19.40;;;22.90;25.70;;;;;;5056672;28;20048;-65
2022/03/26 12:18:10;;;;;;;30.13;17.77;;;23.00;26.10;;;;;;5047632;28;20028;-63
2022/03/26 12:20:45;;;;;;;26.80;16.42;;;23.00;25.40;;;;;;5043930;28;20036;-63
2022/03/26 12:23:23;;;;;;;26.77;18.15;;;23.10;24.80;;;;;;5034436;28;20149;-64
2022/03/26 12:25:50;;;;;;;28.02;19.15;;;23.20;24.80;;;;;;5028195;28;20047;-63
2022/03/26 12:28:26;;;;;;;30.48;19.15;;;23.30;24.80;;;;;;5040611;28;20081;-64
2022/03/26 12:31:04;;;;;;;30.63;19.27;;;23.40;24.40;;;;;;5042763;28;20030;-63
2022/03/26 12:33:38;;;;;;;27.15;17.08;;;23.40;23.90;;;;;;5056396;28;20044;-64
2022/03/26 12:36:04;;;;;;;35.63;17.13;;;23.40;24.20;;;;;;5050385;28;20025;-64
2022/03/26 12:38:30;;;;;;;28.05;17.65;;;23.40;24.40;;;;;;5025999;28;20025;-64
2022/03/26 12:41:01;;;;;;;26.50;16.98;;;23.50;24.00;;;;;;5050107;28;20044;-63
2022/03/26 12:43:27;;;;;;;26.50;16.05;;;23.50;23.40;;;;;;5042017;28;20071;-64
2022/03/26 12:45:55;;;;;;;25.17;16.88;;;23.50;23.60;;;;;;5046052;28;20038;-64